createdAt,value
2022-10-31T00:01:29.311Z,13.95
2022-10-31T00:03:59.039Z,14.02
2022-10-31T00:06:27.316Z,14.02
2022-10-31T00:08:56.929Z,13.92
2022-10-31T00:11:25.798Z,13.98
2022-10-31T00:13:54.542Z,13.38
2022-10-31T00:16:24.485Z,13.64
2022-10-31T00:18:53.747Z,13.72
2022-10-31T00:21:23.947Z,13.74
2022-10-31T00:23:52.254Z,13.59
2022-10-31T00:26:20.624Z,13.54
2022-10-31T00:28:49.681Z,13.41
2022-10-31T00:31:17.911Z,13.10
2022-10-31T00:33:46.584Z,13.06
2022-10-31T00:36:16.346Z,12.98
2022-10-31T00:38:46.879Z,12.79
2022-10-31T00:41:17.023Z,13.11
2022-10-31T00:43:45.696Z,13.53
2022-10-31T00:46:14.321Z,13.54
2022-10-31T00:48:42.985Z,13.14
2022-10-31T00:51:11.591Z,13.31
2022-10-31T00:53:39.915Z,13.26
2022-10-31T00:56:10.916Z,13.15
2022-10-31T00:58:39.394Z,12.77
2022-10-31T01:01:07.957Z,13.37
2022-10-31T01:03:36.634Z,12.53
2022-10-31T01:06:08.271Z,12.60
2022-10-31T01:08:37.271Z,12.77
2022-10-31T01:11:15.941Z,13.11
2022-10-31T01:13:44.710Z,13.22
2022-10-31T01:16:14.852Z,13.35
2022-10-31T01:18:43.510Z,13.29
2022-10-31T01:21:14.207Z,13.20
2022-10-31T01:23:43.091Z,13.25
2022-10-31T01:26:15.389Z,13.02
2022-10-31T01:28:47.748Z,13.16
2022-10-31T01:31:16.924Z,13.29
2022-10-31T01:33:45.677Z,13.25
2022-10-31T01:36:16.610Z,12.91
2022-10-31T01:38:45.127Z,12.31
2022-10-31T01:41:18.548Z,12.91
2022-10-31T01:43:49.612Z,13.14
2022-10-31T01:46:21.950Z,13.15
2022-10-31T01:48:50.820Z,13.22
2022-10-31T01:51:22.908Z,13.20
2022-10-31T01:53:53.767Z,13.07
2022-10-31T01:56:24.265Z,13.04
2022-10-31T01:58:53.847Z,12.41
2022-10-31T02:01:23.680Z,12.15
2022-10-31T02:03:52.109Z,11.99
2022-10-31T02:06:30.043Z,12.13
2022-10-31T02:09:01.686Z,11.51
2022-10-31T02:11:32.076Z,11.41
2022-10-31T02:14:01.585Z,12.10
2022-10-31T02:16:29.842Z,12.18
2022-10-31T02:18:58.816Z,12.18
2022-10-31T02:21:34.524Z,12.28
2022-10-31T02:24:39.787Z,11.97
2022-10-31T02:27:25.423Z,12.33
2022-10-31T02:30:17.020Z,12.21
2022-10-31T02:33:09.342Z,11.08
2022-10-31T02:35:45.033Z,10.72
2022-10-31T02:38:23.923Z,10.60
2022-10-31T02:41:02.201Z,11.45
2022-10-31T02:43:37.786Z,11.76
2022-10-31T02:46:13.155Z,11.59
2022-10-31T02:48:46.627Z,11.67
2022-10-31T02:51:15.685Z,12.00
2022-10-31T02:53:43.925Z,11.94
2022-10-31T02:56:15.287Z,11.94
2022-10-31T02:58:49.765Z,11.76
2022-10-31T03:01:41.966Z,11.21
2022-10-31T03:04:27.943Z,11.20
2022-10-31T03:07:02.298Z,11.95
2022-10-31T03:09:36.361Z,12.28
2022-10-31T03:12:10.082Z,11.73
2022-10-31T03:14:46.141Z,11.77
2022-10-31T03:17:23.175Z,12.07
2022-10-31T03:19:56.870Z,11.99
2022-10-31T03:22:27.660Z,12.41
2022-10-31T03:24:58.138Z,12.52
2022-10-31T03:27:28.775Z,11.86
2022-10-31T03:30:00.479Z,11.93
2022-10-31T03:32:33.846Z,12.14
2022-10-31T03:35:07.378Z,11.98
2022-10-31T03:37:37.779Z,11.82
2022-10-31T03:40:10.224Z,12.03
2022-10-31T03:42:43.705Z,12.10
2022-10-31T03:45:16.881Z,11.92
2022-10-31T03:47:46.562Z,12.07
2022-10-31T03:50:18.234Z,12.08
2022-10-31T03:52:54.945Z,12.31
2022-10-31T03:55:30.390Z,11.52
2022-10-31T03:58:03.478Z,11.86
2022-10-31T04:00:34.523Z,12.19
2022-10-31T04:03:07.689Z,12.27
2022-10-31T04:05:41.262Z,12.28
2022-10-31T04:08:13.159Z,12.35
2022-10-31T04:10:44.845Z,12.49
2022-10-31T04:13:16.523Z,12.37
2022-10-31T04:15:47.028Z,12.53
2022-10-31T04:18:15.447Z,12.34
2022-10-31T04:20:45.190Z,12.30
2022-10-31T04:23:21.515Z,12.44
2022-10-31T04:25:49.727Z,12.23
2022-10-31T04:30:47.164Z,12.46
2022-10-31T04:33:16.864Z,12.42
2022-10-31T04:35:46.487Z,12.51
2022-10-31T04:38:14.727Z,12.45
2022-10-31T04:40:42.971Z,12.53
2022-10-31T04:43:11.639Z,12.27
2022-10-31T04:45:40.129Z,11.70
2022-10-31T04:48:08.470Z,11.91
2022-10-31T04:50:36.699Z,11.51
2022-10-31T04:53:06.679Z,11.34
2022-10-31T04:55:34.913Z,10.93
2022-10-31T04:58:03.575Z,11.30
2022-10-31T05:00:35.325Z,11.50
2022-10-31T05:03:03.883Z,11.41
2022-10-31T05:05:33.480Z,10.73
2022-10-31T05:08:01.681Z,10.25
2022-10-31T05:10:32.703Z,10.28
2022-10-31T05:13:03.565Z,11.06
2022-10-31T05:15:32.601Z,11.34
2022-10-31T05:18:01.236Z,11.25
2022-10-31T05:20:31.895Z,11.28
2022-10-31T05:23:01.145Z,11.54
2022-10-31T05:25:31.198Z,11.56
2022-10-31T05:28:00.272Z,10.96
2022-10-31T05:30:30.875Z,10.96
2022-10-31T05:32:59.629Z,11.70
2022-10-31T05:35:30.121Z,11.72
2022-10-31T05:37:59.491Z,11.32
2022-10-31T05:40:30.395Z,11.75
2022-10-31T05:43:00.342Z,12.14
2022-10-31T05:45:28.789Z,12.52
2022-10-31T05:48:01.575Z,12.55
2022-10-31T05:50:32.650Z,11.99
2022-10-31T05:53:02.820Z,12.33
2022-10-31T05:55:33.064Z,13.43
2022-10-31T05:58:01.765Z,14.05
2022-10-31T06:00:30.773Z,14.92
2022-10-31T06:03:02.819Z,15.07
2022-10-31T06:05:31.803Z,15.40
2022-10-31T06:08:00.325Z,15.90
2022-10-31T06:10:29.322Z,15.75
2022-10-31T06:12:59.074Z,16.18
2022-10-31T06:15:27.278Z,16.11
2022-10-31T06:18:04.069Z,16.93
2022-10-31T06:20:32.830Z,17.18
2022-10-31T06:23:01.418Z,18.01
2022-10-31T06:25:30.337Z,18.13
2022-10-31T06:27:59.956Z,18.25
2022-10-31T06:30:28.399Z,18.09
2022-10-31T06:32:56.821Z,17.99
2022-10-31T06:35:25.051Z,18.08
2022-10-31T06:37:54.496Z,17.96
2022-10-31T06:40:23.191Z,18.20
2022-10-31T06:42:59.943Z,18.63
2022-10-31T06:45:29.000Z,18.08
2022-10-31T06:50:46.564Z,19.47
2022-10-31T06:53:15.496Z,20.21
2022-10-31T06:55:44.325Z,20.95
2022-10-31T06:58:14.006Z,21.33
2022-10-31T07:00:42.292Z,20.97
2022-10-31T07:03:13.592Z,20.94
2022-10-31T07:05:42.459Z,21.05
2022-10-31T07:08:12.817Z,21.27
2022-10-31T07:10:42.460Z,20.94
2022-10-31T07:13:15.056Z,21.89
2022-10-31T07:15:45.044Z,22.09
2022-10-31T07:18:14.738Z,22.57
2022-10-31T07:20:43.008Z,22.85
2022-10-31T07:23:12.210Z,23.03
2022-10-31T07:25:40.895Z,23.67
2022-10-31T07:28:09.529Z,23.79
2022-10-31T07:30:39.698Z,23.75
2022-10-31T07:33:08.358Z,23.21
2022-10-31T07:35:36.602Z,24.30
2022-10-31T07:38:12.063Z,24.50
2022-10-31T07:40:40.522Z,24.90
2022-10-31T07:43:14.064Z,24.53
2022-10-31T07:45:44.532Z,24.47
2022-10-31T07:48:12.932Z,24.45
2022-10-31T07:50:41.160Z,25.16
2022-10-31T07:53:10.944Z,25.59
2022-10-31T07:55:39.802Z,26.07
2022-10-31T07:58:10.053Z,27.34
2022-10-31T08:00:39.991Z,27.77
2022-10-31T08:03:11.394Z,26.21
2022-10-31T08:05:41.598Z,26.77
2022-10-31T08:08:10.571Z,26.89
2022-10-31T08:10:39.240Z,27.07
2022-10-31T08:13:09.679Z,26.96
2022-10-31T08:15:40.471Z,26.60
2022-10-31T08:18:14.311Z,27.40
2022-10-31T08:20:42.532Z,28.06
2022-10-31T08:23:12.975Z,27.92
2022-10-31T08:25:41.399Z,28.81
2022-10-31T08:28:12.359Z,29.40
2022-10-31T08:30:41.031Z,30.05
2022-10-31T08:33:13.867Z,27.89
2022-10-31T08:35:42.889Z,28.39
2022-10-31T08:38:12.490Z,30.04
2022-10-31T08:40:40.786Z,30.45
2022-10-31T08:43:13.970Z,30.43
2022-10-31T08:45:42.341Z,31.14
2022-10-31T08:48:14.336Z,32.20
2022-10-31T08:50:43.166Z,32.94
2022-10-31T08:53:14.264Z,32.96
2022-10-31T08:55:43.878Z,31.20
2022-10-31T08:58:14.319Z,31.33
2022-10-31T09:00:42.715Z,32.31
2022-10-31T09:03:14.881Z,33.09
2022-10-31T09:05:43.679Z,32.97
2022-10-31T09:08:16.275Z,33.33
2022-10-31T09:10:46.311Z,32.80
2022-10-31T09:13:15.995Z,32.13
2022-10-31T09:15:46.239Z,32.27
2022-10-31T09:18:17.847Z,32.03
2022-10-31T09:20:47.535Z,31.79
2022-10-31T09:23:18.213Z,31.75
2022-10-31T09:25:50.452Z,30.69
2022-10-31T09:28:21.176Z,30.81
2022-10-31T09:30:50.154Z,32.05
2022-10-31T09:33:19.935Z,30.72
2022-10-31T09:35:48.702Z,31.24
2022-10-31T09:38:20.251Z,30.95
2022-10-31T09:40:51.518Z,31.10
2022-10-31T09:43:27.732Z,32.46
2022-10-31T09:46:07.107Z,33.36
2022-10-31T09:48:51.750Z,33.03
2022-10-31T09:51:25.522Z,31.54
2022-10-31T09:54:00.143Z,32.66
2022-10-31T09:56:30.086Z,32.27
2022-10-31T09:59:01.702Z,32.22
2022-10-31T10:01:40.451Z,31.70
2022-10-31T10:04:29.310Z,32.32
2022-10-31T10:06:58.470Z,32.36
2022-10-31T10:09:28.687Z,32.39
2022-10-31T10:12:08.876Z,33.88
2022-10-31T10:14:48.079Z,32.96
2022-10-31T10:17:32.916Z,32.87
2022-10-31T10:20:22.866Z,32.20
2022-10-31T10:22:58.109Z,32.20
2022-10-31T10:25:31.388Z,32.30
2022-10-31T10:28:12.911Z,32.67
2022-10-31T10:30:44.847Z,33.33
2022-10-31T10:33:16.716Z,32.86
2022-10-31T10:35:52.660Z,33.69
2022-10-31T10:38:29.814Z,33.99
2022-10-31T10:40:59.016Z,34.88
2022-10-31T10:43:35.055Z,35.65
2022-10-31T10:46:36.756Z,34.10
2022-10-31T10:49:14.718Z,34.59
2022-10-31T10:55:02.214Z,32.62
2022-10-31T10:57:41.428Z,31.66
2022-10-31T11:00:20.774Z,31.19
2022-10-31T11:02:49.608Z,32.40
2022-10-31T11:05:26.424Z,31.58
2022-10-31T11:07:56.092Z,32.05
2022-10-31T11:10:24.706Z,32.81
2022-10-31T11:13:25.238Z,32.52
2022-10-31T11:15:57.816Z,32.35
2022-10-31T11:18:29.372Z,33.00
2022-10-31T11:20:59.309Z,33.64
2022-10-31T11:23:30.537Z,33.90
2022-10-31T11:26:00.910Z,32.69
2022-10-31T11:28:31.569Z,31.30
2022-10-31T11:31:01.402Z,31.88
2022-10-31T11:33:34.587Z,31.66
2022-10-31T11:36:04.424Z,31.19
2022-10-31T11:38:41.669Z,30.65
2022-10-31T11:41:16.336Z,30.85
2022-10-31T11:43:51.770Z,31.58
2022-10-31T11:46:24.499Z,31.38
2022-10-31T11:48:56.324Z,32.05
2022-10-31T11:51:27.675Z,31.08
2022-10-31T11:54:02.719Z,30.50
2022-10-31T11:56:41.261Z,30.43
2022-10-31T11:59:23.015Z,30.22
2022-10-31T12:01:53.193Z,30.30
2022-10-31T12:04:29.048Z,31.07
2022-10-31T12:06:57.336Z,31.00
2022-10-31T12:09:29.602Z,31.43
2022-10-31T12:12:28.396Z,33.05
2022-10-31T12:15:10.506Z,31.41
2022-10-31T12:17:43.900Z,32.85
2022-10-31T12:20:23.715Z,33.43
2022-10-31T12:23:00.890Z,32.37
2022-10-31T12:25:41.525Z,31.76
2022-10-31T12:28:24.885Z,32.14
2022-10-31T12:31:04.278Z,32.10
2022-10-31T12:33:45.324Z,32.43
2022-10-31T12:36:30.927Z,32.59
2022-10-31T12:39:26.972Z,32.67
2022-10-31T12:42:05.222Z,32.79
2022-10-31T12:45:08.182Z,33.38
2022-10-31T12:47:57.861Z,32.47
2022-10-31T12:50:37.498Z,32.82
2022-10-31T12:55:59.182Z,32.67
2022-10-31T12:58:34.788Z,31.77
2022-10-31T13:01:11.581Z,30.70
2022-10-31T13:03:49.426Z,29.96
2022-10-31T13:06:22.413Z,29.33
2022-10-31T13:08:55.938Z,29.38
2022-10-31T13:11:27.724Z,28.91
2022-10-31T13:14:03.060Z,28.86
2022-10-31T13:16:36.878Z,28.73
2022-10-31T13:19:12.902Z,28.15
2022-10-31T13:21:47.356Z,28.17
2022-10-31T13:24:20.691Z,28.02
2022-10-31T13:26:52.542Z,26.97
2022-10-31T13:29:29.916Z,26.06
2022-10-31T13:32:01.959Z,25.90
2022-10-31T13:34:36.457Z,25.84
2022-10-31T13:37:12.549Z,26.43
2022-10-31T13:40:00.818Z,27.25
2022-10-31T13:42:42.891Z,28.21
2022-10-31T13:45:20.315Z,29.20
2022-10-31T13:47:58.916Z,28.61
2022-10-31T13:50:29.655Z,28.81
2022-10-31T13:53:14.524Z,29.12
2022-10-31T13:55:45.218Z,28.45
2022-10-31T13:58:24.907Z,28.33
2022-10-31T14:01:18.114Z,27.68
2022-10-31T14:04:04.568Z,28.26
2022-10-31T14:06:42.704Z,28.80
2022-10-31T14:09:25.878Z,28.58
2022-10-31T14:11:55.033Z,28.04
2022-10-31T14:14:28.724Z,28.02
2022-10-31T14:17:00.019Z,26.96
2022-10-31T14:19:29.007Z,27.66
2022-10-31T14:21:57.453Z,27.92
2022-10-31T14:24:38.427Z,27.06
2022-10-31T14:27:47.624Z,26.97
2022-10-31T14:30:23.638Z,26.86
2022-10-31T14:33:01.628Z,26.86
2022-10-31T14:35:45.593Z,26.81
2022-10-31T14:38:39.181Z,26.13
2022-10-31T14:41:30.694Z,25.51
2022-10-31T14:44:42.825Z,25.36
2022-10-31T14:47:22.438Z,25.02
2022-10-31T14:50:18.746Z,24.95
2022-10-31T14:52:51.426Z,25.36
2022-10-31T14:55:21.009Z,25.15
2022-10-31T14:57:53.529Z,25.12
2022-10-31T15:00:24.710Z,25.40
2022-10-31T15:03:05.530Z,25.35
2022-10-31T15:05:37.561Z,25.30
2022-10-31T15:08:06.093Z,25.58
2022-10-31T15:10:38.548Z,25.20
2022-10-31T15:13:19.483Z,25.15
2022-10-31T15:15:52.012Z,24.39
2022-10-31T15:18:24.079Z,24.67
2022-10-31T15:20:56.161Z,24.92
2022-10-31T15:23:27.299Z,24.84
2022-10-31T15:26:02.052Z,24.97
2022-10-31T15:28:32.354Z,24.91
2022-10-31T15:31:02.919Z,24.82
2022-10-31T15:33:38.284Z,24.59
2022-10-31T15:36:25.535Z,24.54
2022-10-31T15:38:58.727Z,24.40
2022-10-31T15:41:33.090Z,24.35
2022-10-31T15:44:05.849Z,23.58
2022-10-31T15:46:34.976Z,23.40
2022-10-31T15:49:03.372Z,23.19
2022-10-31T15:51:35.941Z,23.44
2022-10-31T15:54:04.344Z,22.81
2022-10-31T15:56:34.891Z,22.00
2022-10-31T15:59:04.375Z,21.99
2022-10-31T16:01:34.537Z,22.58
2022-10-31T16:04:06.904Z,22.75
2022-10-31T16:06:37.045Z,21.94
2022-10-31T16:09:06.629Z,22.41
2022-10-31T16:11:40.037Z,22.70
2022-10-31T16:14:23.130Z,22.44
2022-10-31T16:16:56.540Z,21.83
2022-10-31T16:19:26.799Z,21.71
2022-10-31T16:21:58.473Z,21.41
2022-10-31T16:24:30.569Z,21.18
2022-10-31T16:27:06.129Z,21.63
2022-10-31T16:29:41.754Z,21.92
2022-10-31T16:32:28.511Z,22.21
2022-10-31T16:35:18.986Z,22.36
2022-10-31T16:37:48.708Z,22.43
2022-10-31T16:40:18.761Z,22.46
2022-10-31T16:42:48.354Z,21.89
2022-10-31T16:45:19.924Z,22.36
2022-10-31T16:47:49.386Z,22.31
2022-10-31T16:50:20.817Z,21.83
2022-10-31T16:55:45.577Z,22.11
2022-10-31T16:58:18.675Z,22.11
2022-10-31T17:00:47.318Z,21.58
2022-10-31T17:03:16.607Z,21.94
2022-10-31T17:05:44.841Z,22.05
2022-10-31T17:08:14.755Z,21.68
2022-10-31T17:10:44.784Z,21.62
2022-10-31T17:13:17.006Z,21.82
2022-10-31T17:15:49.423Z,21.47
2022-10-31T17:18:21.655Z,21.58
2022-10-31T17:20:58.087Z,21.04
2022-10-31T17:23:28.360Z,21.12
2022-10-31T17:25:56.651Z,21.05
2022-10-31T17:28:26.635Z,20.84
2022-10-31T17:30:56.432Z,20.55
2022-10-31T17:33:24.599Z,20.38
2022-10-31T17:35:53.004Z,20.58
2022-10-31T17:38:21.286Z,20.74
2022-10-31T17:40:51.001Z,20.28
2022-10-31T17:43:19.274Z,20.06
2022-10-31T17:45:47.524Z,19.76
2022-10-31T17:48:15.741Z,19.75
2022-10-31T17:50:44.003Z,20.15
2022-10-31T17:53:12.295Z,20.59
2022-10-31T17:55:40.536Z,20.33
2022-10-31T17:58:12.327Z,20.58
2022-10-31T18:00:42.300Z,20.88
2022-10-31T18:03:11.900Z,20.76
2022-10-31T18:05:40.185Z,20.76
2022-10-31T18:08:08.373Z,20.54
2022-10-31T18:10:36.558Z,20.58
2022-10-31T18:13:05.038Z,20.57
2022-10-31T18:15:34.819Z,20.48
2022-10-31T18:18:04.270Z,20.59
2022-10-31T18:20:32.652Z,20.66
2022-10-31T18:23:00.936Z,20.66
2022-10-31T18:25:29.190Z,20.62
2022-10-31T18:27:58.551Z,20.68
2022-10-31T18:30:26.913Z,20.65
2022-10-31T18:32:56.599Z,20.62
2022-10-31T18:35:24.892Z,20.56
2022-10-31T18:37:53.470Z,20.66
2022-10-31T18:40:21.760Z,20.42
2022-10-31T18:42:50.038Z,20.37
2022-10-31T18:45:32.696Z,20.35
2022-10-31T18:48:08.383Z,20.18
2022-10-31T18:50:40.765Z,20.03
2022-10-31T18:53:09.103Z,20.16
2022-10-31T18:55:43.972Z,20.10
2022-10-31T18:58:15.791Z,20.09
2022-10-31T19:00:44.989Z,20.04
2022-10-31T19:03:15.664Z,19.90
2022-10-31T19:05:43.966Z,19.59
2022-10-31T19:08:12.320Z,18.53
2022-10-31T19:10:41.618Z,18.36
2022-10-31T19:13:10.146Z,18.70
2022-10-31T19:15:38.414Z,19.09
2022-10-31T19:18:06.757Z,18.98
2022-10-31T19:20:39.699Z,19.29
2022-10-31T19:23:08.398Z,19.39
2022-10-31T19:25:36.738Z,19.45
2022-10-31T19:28:05.544Z,19.43
2022-10-31T19:30:33.896Z,19.54
2022-10-31T19:33:02.264Z,19.49
2022-10-31T19:35:30.498Z,19.46
2022-10-31T19:38:00.482Z,19.36
2022-10-31T19:40:29.175Z,18.69
2022-10-31T19:42:59.621Z,18.44
2022-10-31T19:45:27.860Z,18.85
2022-10-31T19:47:56.089Z,18.57
2022-10-31T19:50:24.284Z,18.37
2022-10-31T19:52:52.589Z,18.06
2022-10-31T19:55:22.357Z,18.00
2022-10-31T19:58:11.599Z,18.16
2022-10-31T20:00:39.507Z,18.54
2022-10-31T20:03:08.137Z,18.28
2022-10-31T20:05:41.016Z,18.02
2022-10-31T20:08:09.840Z,18.61
2022-10-31T20:10:39.507Z,18.58
2022-10-31T20:13:07.846Z,18.62
2022-10-31T20:15:36.389Z,18.51
2022-10-31T20:18:04.664Z,18.11
2022-10-31T20:20:33.347Z,18.40
2022-10-31T20:23:01.875Z,18.46
2022-10-31T20:25:31.846Z,18.25
2022-10-31T20:28:01.766Z,18.33
2022-10-31T20:30:30.768Z,18.41
2022-10-31T20:32:59.010Z,18.41
2022-10-31T20:35:27.261Z,18.41
2022-10-31T20:37:55.729Z,18.20
2022-10-31T20:40:24.378Z,17.86
2022-10-31T20:42:52.627Z,18.21
2022-10-31T20:45:22.323Z,18.10
2022-10-31T20:47:50.688Z,17.99
2022-10-31T20:50:19.189Z,18.07
2022-10-31T20:52:47.690Z,17.95
2022-10-31T20:55:16.669Z,17.86
2022-10-31T20:57:45.025Z,17.91
2022-10-31T21:00:14.239Z,17.96
2022-10-31T21:02:44.636Z,17.80
2022-10-31T21:05:14.545Z,16.92
2022-10-31T21:07:43.037Z,16.66
2022-10-31T21:10:15.963Z,17.10
2022-10-31T21:12:45.529Z,17.29
2022-10-31T21:15:15.551Z,17.06
2022-10-31T21:17:45.199Z,17.42
2022-10-31T21:20:13.943Z,17.09
2022-10-31T21:22:42.153Z,16.22
2022-10-31T21:25:10.506Z,15.93
2022-10-31T21:27:39.733Z,16.13
2022-10-31T21:30:11.144Z,16.68
2022-10-31T21:32:39.431Z,16.98
2022-10-31T21:35:10.258Z,17.24
2022-10-31T21:37:38.526Z,17.46
2022-10-31T21:40:07.799Z,17.49
2022-10-31T21:42:36.124Z,17.39
2022-10-31T21:45:05.321Z,17.47
2022-10-31T21:47:34.000Z,16.81
2022-10-31T21:50:02.547Z,16.91
2022-10-31T21:52:33.433Z,17.01
2022-10-31T21:55:10.439Z,15.95
2022-10-31T21:57:39.098Z,15.30
2022-10-31T22:00:09.539Z,15.12
2022-10-31T22:02:38.551Z,14.86
2022-10-31T22:05:07.266Z,14.79
2022-10-31T22:07:36.925Z,15.09
2022-10-31T22:10:05.634Z,14.92
2022-10-31T22:12:33.894Z,14.91
2022-10-31T22:15:02.330Z,15.43
2022-10-31T22:17:31.011Z,15.88
2022-10-31T22:19:59.740Z,16.15
2022-10-31T22:22:28.263Z,16.17
2022-10-31T22:24:57.917Z,16.16
2022-10-31T22:27:26.185Z,16.28
2022-10-31T22:29:56.692Z,16.24
2022-10-31T22:32:27.375Z,16.14
2022-10-31T22:34:55.590Z,16.13
2022-10-31T22:37:24.367Z,16.04
2022-10-31T22:39:52.909Z,16.08
2022-10-31T22:42:22.533Z,16.04
2022-10-31T22:44:50.766Z,16.19
2022-10-31T22:47:19.016Z,16.06
2022-10-31T22:49:47.327Z,15.98
2022-10-31T22:52:15.551Z,16.00
2022-10-31T22:54:44.210Z,15.97
2022-10-31T22:57:12.472Z,15.95
2022-10-31T22:59:42.105Z,15.97
2022-10-31T23:02:12.421Z,15.89
2022-10-31T23:04:41.107Z,15.93
2022-10-31T23:07:12.340Z,15.45
2022-10-31T23:09:42.842Z,15.44
2022-10-31T23:12:28.730Z,14.97
2022-10-31T23:14:58.429Z,15.29
2022-10-31T23:17:26.796Z,15.28
2022-10-31T23:19:55.067Z,15.49
2022-10-31T23:22:23.278Z,15.69
2022-10-31T23:24:51.458Z,15.79
2022-10-31T23:27:21.073Z,14.90
2022-10-31T23:29:50.598Z,13.84
2022-10-31T23:32:22.937Z,14.79
2022-10-31T23:34:52.858Z,14.89
2022-10-31T23:37:22.903Z,14.54
2022-10-31T23:39:51.390Z,14.68
2022-10-31T23:42:20.038Z,14.98
2022-10-31T23:44:48.676Z,15.48
2022-10-31T23:47:17.661Z,14.87
2022-10-31T23:49:47.526Z,15.22
2022-10-31T23:52:16.449Z,15.58
2022-10-31T23:54:45.328Z,15.34
2022-10-31T23:57:14.691Z,15.49
2022-10-31T23:59:43.197Z,15.20
